createdAt,value
2018-03-30T00:01:24.080Z,2.00
2018-03-30T00:03:50.416Z,2.63
2018-03-30T00:06:16.769Z,2.80
2018-03-30T00:08:43.196Z,2.07
2018-03-30T00:11:09.561Z,2.73
2018-03-30T00:13:35.935Z,2.40
2018-03-30T00:16:02.286Z,4.00
2018-03-30T00:18:28.635Z,2.07
2018-03-30T00:20:54.954Z,2.33
2018-03-30T00:23:21.290Z,2.20
2018-03-30T00:25:47.597Z,1.83
2018-03-30T00:28:13.913Z,3.00
2018-03-30T00:30:40.305Z,3.23
2018-03-30T00:33:06.628Z,2.07
2018-03-30T00:35:33.041Z,2.03
2018-03-30T00:37:59.380Z,2.47
2018-03-30T00:40:25.800Z,1.70
2018-03-30T00:42:52.129Z,2.00
2018-03-30T00:45:19.513Z,2.27
2018-03-30T00:47:45.857Z,2.97
2018-03-30T00:50:12.182Z,2.53
2018-03-30T00:52:38.540Z,2.00
2018-03-30T00:55:06.214Z,2.07
2018-03-30T00:57:32.553Z,2.40
2018-03-30T00:59:58.890Z,4.53
2018-03-30T01:02:25.226Z,2.37
2018-03-30T01:04:51.528Z,3.27
2018-03-30T01:07:18.580Z,2.43
2018-03-30T01:09:44.894Z,3.30
2018-03-30T01:12:11.951Z,2.27
2018-03-30T01:14:39.033Z,1.80
2018-03-30T01:17:05.369Z,2.40
2018-03-30T01:19:31.694Z,2.40
2018-03-30T01:21:58.128Z,2.27
2018-03-30T01:24:24.429Z,2.37
2018-03-30T01:26:51.477Z,3.13
2018-03-30T01:29:18.515Z,2.30
2018-03-30T01:31:45.565Z,1.70
2018-03-30T01:34:12.680Z,2.00
2018-03-30T01:36:38.988Z,2.87
2018-03-30T01:39:05.313Z,1.67
2018-03-30T01:41:31.639Z,1.97
2018-03-30T01:43:57.936Z,2.10
2018-03-30T01:46:25.063Z,1.93
2018-03-30T01:48:51.392Z,1.80
2018-03-30T01:51:17.788Z,2.77
2018-03-30T01:53:44.207Z,1.90
2018-03-30T01:56:10.581Z,2.20
2018-03-30T01:58:36.884Z,2.30
2018-03-30T02:01:03.189Z,2.90
2018-03-30T02:03:29.579Z,2.03
2018-03-30T02:05:55.911Z,3.13
2018-03-30T02:08:22.360Z,3.80
2018-03-30T02:10:48.668Z,2.23
2018-03-30T02:13:14.978Z,2.67
2018-03-30T02:15:41.329Z,3.07
2018-03-30T02:18:07.655Z,2.50
2018-03-30T02:20:33.964Z,3.10
2018-03-30T02:23:00.308Z,2.70
2018-03-30T02:25:26.640Z,2.17
2018-03-30T02:27:53.001Z,2.50
2018-03-30T02:30:19.380Z,3.77
2018-03-30T02:32:45.740Z,2.40
2018-03-30T02:35:12.064Z,2.77
2018-03-30T02:37:38.397Z,2.43
2018-03-30T02:40:04.778Z,2.80
2018-03-30T02:42:31.866Z,2.63
2018-03-30T02:44:58.217Z,2.47
2018-03-30T02:47:24.577Z,2.40
2018-03-30T02:49:50.990Z,3.47
2018-03-30T02:52:17.361Z,2.60
2018-03-30T02:54:44.480Z,2.70
2018-03-30T02:57:11.194Z,2.97
2018-03-30T02:59:37.649Z,2.47
2018-03-30T03:02:03.982Z,2.83
2018-03-30T03:04:30.311Z,3.03
2018-03-30T03:06:56.636Z,2.77
2018-03-30T03:09:22.953Z,2.80
2018-03-30T03:11:49.273Z,3.77
2018-03-30T03:14:15.594Z,3.33
2018-03-30T03:16:41.948Z,3.33
2018-03-30T03:19:08.304Z,3.37
2018-03-30T03:21:34.802Z,3.67
2018-03-30T03:24:01.160Z,3.43
2018-03-30T03:26:27.462Z,4.73
2018-03-30T03:28:53.804Z,3.37
2018-03-30T03:31:20.117Z,3.70
2018-03-30T03:33:46.490Z,2.87
2018-03-30T03:36:12.836Z,3.20
2018-03-30T03:38:39.141Z,3.67
2018-03-30T03:41:05.494Z,3.13
2018-03-30T03:43:31.833Z,4.57
2018-03-30T03:45:58.173Z,4.33
2018-03-30T03:48:24.479Z,4.50
2018-03-30T03:50:50.800Z,3.60
2018-03-30T03:53:17.115Z,4.83
2018-03-30T03:55:43.515Z,3.80
2018-03-30T03:58:10.593Z,3.03
2018-03-30T04:00:36.898Z,3.73
2018-03-30T04:03:03.986Z,3.80
2018-03-30T04:05:30.307Z,4.37
2018-03-30T04:07:56.638Z,4.13
2018-03-30T04:10:22.943Z,4.10
2018-03-30T04:12:49.331Z,4.43
2018-03-30T04:15:15.643Z,4.23
2018-03-30T04:17:42.112Z,3.77
2018-03-30T04:20:08.444Z,4.73
2018-03-30T04:22:34.789Z,5.33
2018-03-30T04:25:01.849Z,5.50
2018-03-30T04:27:29.946Z,6.10
2018-03-30T04:29:56.312Z,5.57
2018-03-30T04:32:22.648Z,4.30
2018-03-30T04:34:48.962Z,5.10
2018-03-30T04:37:15.284Z,4.40
2018-03-30T04:39:41.645Z,4.77
2018-03-30T04:42:07.979Z,5.80
2018-03-30T04:44:34.305Z,5.13
2018-03-30T04:47:00.632Z,4.83
2018-03-30T04:49:26.950Z,5.13
2018-03-30T04:51:53.267Z,4.63
2018-03-30T04:54:19.626Z,6.07
2018-03-30T04:56:45.948Z,5.70
2018-03-30T04:59:12.268Z,6.70
2018-03-30T05:01:38.595Z,7.07
2018-03-30T05:04:04.912Z,7.00
2018-03-30T05:06:31.223Z,9.63
2018-03-30T05:08:57.537Z,7.57
2018-03-30T05:11:24.576Z,7.33
2018-03-30T05:13:50.907Z,6.53
2018-03-30T05:16:17.981Z,8.93
2018-03-30T05:18:44.357Z,11.17
2018-03-30T05:21:10.678Z,14.43
2018-03-30T05:23:37.026Z,8.60
2018-03-30T05:26:03.441Z,6.87
2018-03-30T05:28:29.743Z,6.60
2018-03-30T05:30:56.091Z,5.67
2018-03-30T05:33:22.443Z,6.50
2018-03-30T05:35:48.737Z,6.50
2018-03-30T05:38:15.103Z,4.87
2018-03-30T05:40:41.419Z,6.17
2018-03-30T05:43:07.730Z,6.37
2018-03-30T05:45:34.024Z,6.23
2018-03-30T05:48:00.425Z,7.03
2018-03-30T05:50:26.723Z,6.10
2018-03-30T05:52:53.120Z,5.80
2018-03-30T05:55:19.434Z,5.73
2018-03-30T05:57:45.749Z,6.03
2018-03-30T06:00:12.069Z,5.83
2018-03-30T06:02:38.393Z,6.10
2018-03-30T06:05:04.732Z,5.77
2018-03-30T06:07:31.078Z,7.40
2018-03-30T06:09:57.408Z,5.77
2018-03-30T06:12:23.701Z,10.30
2018-03-30T06:14:50.065Z,5.57
2018-03-30T06:17:16.385Z,8.30
2018-03-30T06:19:42.745Z,7.07
2018-03-30T06:22:09.080Z,8.37
2018-03-30T06:24:35.433Z,7.30
2018-03-30T06:27:02.544Z,6.33
2018-03-30T06:29:28.843Z,6.03
2018-03-30T06:31:55.229Z,5.63
2018-03-30T06:34:21.546Z,4.97
2018-03-30T06:36:47.900Z,4.40
2018-03-30T06:39:14.208Z,3.60
2018-03-30T06:41:41.495Z,4.33
2018-03-30T06:44:09.492Z,3.67
2018-03-30T06:46:35.860Z,4.07
2018-03-30T06:49:02.190Z,3.57
2018-03-30T06:51:28.626Z,3.67
2018-03-30T06:53:55.017Z,3.40
2018-03-30T06:56:21.378Z,3.10
2018-03-30T06:58:47.712Z,3.70
2018-03-30T07:01:14.088Z,3.63
2018-03-30T07:03:41.138Z,4.03
2018-03-30T07:06:08.245Z,4.27
2018-03-30T07:08:34.592Z,5.53
2018-03-30T07:11:01.024Z,4.90
2018-03-30T07:13:27.453Z,4.17
2018-03-30T07:15:53.773Z,3.70
2018-03-30T07:18:20.268Z,3.13
2018-03-30T07:20:47.315Z,5.40
2018-03-30T07:23:14.367Z,3.03
2018-03-30T07:25:40.673Z,3.30
2018-03-30T07:28:06.964Z,4.07
2018-03-30T07:30:33.425Z,3.30
2018-03-30T07:32:59.929Z,3.47
2018-03-30T07:35:26.349Z,3.00
2018-03-30T07:37:52.684Z,2.87
2018-03-30T07:40:19.022Z,3.20
2018-03-30T07:42:45.373Z,2.80
2018-03-30T07:45:11.697Z,2.77
2018-03-30T07:47:38.021Z,2.60
2018-03-30T07:50:04.339Z,2.85
2018-03-30T07:52:30.650Z,2.70
2018-03-30T07:54:56.995Z,2.92
2018-03-30T07:57:23.280Z,2.57
2018-03-30T07:59:49.763Z,3.37
2018-03-30T08:02:16.165Z,3.67
2018-03-30T08:04:43.238Z,4.03
2018-03-30T08:07:09.542Z,4.33
2018-03-30T08:09:36.597Z,5.10
2018-03-30T08:12:03.718Z,4.30
2018-03-30T08:14:30.124Z,4.80
2018-03-30T08:16:56.437Z,4.67
2018-03-30T08:19:22.808Z,4.27
2018-03-30T08:21:49.121Z,4.80
2018-03-30T08:24:15.445Z,4.40
2018-03-30T08:26:41.739Z,5.13
2018-03-30T08:29:08.776Z,4.10
2018-03-30T08:31:35.832Z,4.20
2018-03-30T08:34:02.897Z,3.40
2018-03-30T08:36:29.261Z,3.67
2018-03-30T08:38:55.576Z,3.40
2018-03-30T08:41:21.884Z,4.20
2018-03-30T08:43:48.181Z,3.43
2018-03-30T08:46:14.497Z,3.10
2018-03-30T08:48:40.810Z,3.20
2018-03-30T08:51:07.108Z,3.13
2018-03-30T08:53:33.401Z,3.73
2018-03-30T08:55:59.696Z,3.83
2018-03-30T08:58:26.000Z,4.20
2018-03-30T09:00:52.334Z,4.40
2018-03-30T09:03:18.651Z,4.50
2018-03-30T09:05:45.673Z,4.00
2018-03-30T09:08:11.982Z,3.40
2018-03-30T09:10:38.320Z,3.93
2018-03-30T09:13:04.656Z,3.73
2018-03-30T09:15:31.055Z,4.63
2018-03-30T09:17:57.437Z,3.97
2018-03-30T09:20:24.527Z,4.13
2018-03-30T09:22:50.841Z,3.53
2018-03-30T09:25:17.916Z,3.87
2018-03-30T09:27:44.352Z,4.20
2018-03-30T09:30:10.692Z,3.93
2018-03-30T09:32:37.030Z,5.20
2018-03-30T09:35:03.355Z,4.10
2018-03-30T09:37:29.672Z,3.53
2018-03-30T09:39:56.049Z,2.80
2018-03-30T09:42:22.465Z,3.40
2018-03-30T09:44:48.865Z,2.90
2018-03-30T09:47:15.236Z,2.87
2018-03-30T09:49:41.526Z,3.23
2018-03-30T09:52:07.820Z,3.00
2018-03-30T09:54:34.870Z,2.50
2018-03-30T09:57:01.964Z,2.37
2018-03-30T09:59:28.329Z,2.23
2018-03-30T10:01:54.741Z,2.33
2018-03-30T10:04:23.012Z,2.63
2018-03-30T10:06:49.352Z,2.63
2018-03-30T10:09:15.702Z,2.50
2018-03-30T10:11:42.031Z,2.50
2018-03-30T10:14:08.341Z,2.43
2018-03-30T10:16:34.642Z,2.50
2018-03-30T10:19:00.989Z,2.57
2018-03-30T10:21:27.321Z,2.00
2018-03-30T10:23:53.651Z,1.83
2018-03-30T10:26:19.967Z,1.43
2018-03-30T10:28:46.282Z,1.93
2018-03-30T10:31:13.329Z,1.00
2018-03-30T10:33:40.452Z,1.30
2018-03-30T10:36:06.841Z,1.80
2018-03-30T10:38:33.160Z,1.50
2018-03-30T10:40:59.529Z,1.87
2018-03-30T10:43:25.857Z,1.07
2018-03-30T10:45:52.292Z,1.30
2018-03-30T10:48:19.525Z,1.13
2018-03-30T10:50:45.865Z,1.23
2018-03-30T10:53:12.196Z,1.13
2018-03-30T10:55:38.510Z,1.17
2018-03-30T10:58:05.515Z,0.67
2018-03-30T11:00:32.559Z,1.27
2018-03-30T11:02:59.612Z,1.30
2018-03-30T11:05:25.951Z,0.93
2018-03-30T11:07:53.044Z,0.70
2018-03-30T11:10:19.372Z,0.60
2018-03-30T11:12:45.711Z,3.00
2018-03-30T11:15:12.033Z,0.60
2018-03-30T11:17:38.358Z,1.20
2018-03-30T11:20:04.685Z,0.93
2018-03-30T11:22:30.985Z,0.80
2018-03-30T11:24:58.392Z,0.40
2018-03-30T11:27:24.865Z,0.70
2018-03-30T11:29:51.183Z,0.57
2018-03-30T11:32:18.345Z,1.87
2018-03-30T11:34:44.679Z,0.33
2018-03-30T11:37:11.094Z,0.57
2018-03-30T11:39:37.577Z,0.87
2018-03-30T11:42:03.913Z,0.47
2018-03-30T11:44:30.271Z,0.30
2018-03-30T11:46:56.622Z,0.33
2018-03-30T11:49:23.752Z,0.70
2018-03-30T11:51:50.093Z,6.73
2018-03-30T11:54:16.417Z,10.63
2018-03-30T11:56:42.756Z,13.33
2018-03-30T11:59:09.216Z,5.43
2018-03-30T12:01:35.580Z,3.20
2018-03-30T12:04:01.970Z,2.20
2018-03-30T12:06:28.413Z,2.23
2018-03-30T12:08:54.744Z,1.30
2018-03-30T12:11:21.089Z,2.73
2018-03-30T12:13:48.229Z,6.80
2018-03-30T12:16:14.591Z,116.77
2018-03-30T12:18:40.921Z,174.60
2018-03-30T12:21:07.259Z,103.87
2018-03-30T12:23:33.572Z,54.43
2018-03-30T12:26:00.630Z,23.47
2018-03-30T12:28:27.551Z,8.37
2018-03-30T12:30:54.124Z,3.90
2018-03-30T12:33:21.167Z,2.37
2018-03-30T12:35:47.704Z,1.00
2018-03-30T12:38:14.277Z,1.07
2018-03-30T12:40:40.613Z,0.67
2018-03-30T12:43:07.192Z,0.77
2018-03-30T12:45:34.599Z,1.63
2018-03-30T12:48:01.296Z,1.83
2018-03-30T12:50:27.629Z,1.57
2018-03-30T12:52:54.493Z,0.60
2018-03-30T12:55:20.916Z,1.13
2018-03-30T12:57:47.258Z,0.60
2018-03-30T13:00:14.417Z,0.70
2018-03-30T13:02:41.096Z,1.17
2018-03-30T13:05:07.996Z,0.70
2018-03-30T13:07:34.772Z,0.60
2018-03-30T13:10:01.099Z,0.60
2018-03-30T13:12:28.490Z,1.00
2018-03-30T13:14:55.969Z,0.57
2018-03-30T13:17:22.321Z,0.60
2018-03-30T13:19:51.230Z,0.43
2018-03-30T13:22:17.576Z,0.50
2018-03-30T13:24:43.921Z,0.83
2018-03-30T13:27:11.066Z,0.90
2018-03-30T13:29:37.376Z,1.17
2018-03-30T13:32:03.720Z,2.07
2018-03-30T13:34:30.114Z,1.10
2018-03-30T13:36:56.503Z,0.73
2018-03-30T13:39:25.665Z,1.83
2018-03-30T13:41:52.056Z,1.40
2018-03-30T13:44:18.462Z,1.30
2018-03-30T13:46:45.544Z,1.27
2018-03-30T13:49:11.868Z,1.37
2018-03-30T13:51:41.980Z,0.83
2018-03-30T13:54:09.141Z,1.37
2018-03-30T13:56:36.594Z,1.60
2018-03-30T13:59:03.738Z,1.13
2018-03-30T14:01:32.796Z,1.17
2018-03-30T14:03:59.161Z,1.20
2018-03-30T14:06:32.829Z,1.47
2018-03-30T14:09:19.001Z,1.33
2018-03-30T14:11:46.245Z,1.03
2018-03-30T14:14:12.609Z,2.00
2018-03-30T14:16:56.714Z,2.10
2018-03-30T14:19:35.969Z,1.47
2018-03-30T14:22:08.125Z,1.67
2018-03-30T14:24:35.240Z,1.37
2018-03-30T14:27:17.254Z,2.90
2018-03-30T14:29:47.625Z,1.67
2018-03-30T14:32:14.790Z,1.30
2018-03-30T14:34:44.768Z,1.87
2018-03-30T14:40:16.429Z,1.00
2018-03-30T14:42:56.148Z,1.30
2018-03-30T14:45:27.005Z,0.90
2018-03-30T14:47:54.199Z,1.60
2018-03-30T14:50:30.338Z,1.03
2018-03-30T14:53:01.490Z,1.07
2018-03-30T14:55:34.546Z,0.97
2018-03-30T14:58:16.571Z,1.10
2018-03-30T15:00:45.534Z,1.10
2018-03-30T15:06:12.697Z,2.10
2018-03-30T15:08:44.548Z,1.43
2018-03-30T15:11:31.524Z,2.00
2018-03-30T15:14:03.962Z,1.10
2018-03-30T15:16:35.871Z,1.10
2018-03-30T15:19:05.913Z,1.10
2018-03-30T15:21:36.117Z,1.60
2018-03-30T15:24:03.553Z,0.93
2018-03-30T15:26:36.655Z,1.37
2018-03-30T15:29:04.680Z,1.20
2018-03-30T15:31:45.676Z,1.97
2018-03-30T15:34:16.384Z,0.87
2018-03-30T15:36:44.410Z,1.17
2018-03-30T15:39:11.119Z,1.10
2018-03-30T15:41:50.334Z,2.30
2018-03-30T15:44:16.703Z,1.00
2018-03-30T15:46:44.017Z,1.60
2018-03-30T15:49:11.141Z,1.00
2018-03-30T15:51:37.590Z,0.97
2018-03-30T15:54:04.502Z,0.93
2018-03-30T15:56:30.876Z,1.90
2018-03-30T15:58:58.220Z,1.53
2018-03-30T16:01:25.364Z,1.83
2018-03-30T16:03:53.056Z,1.80
2018-03-30T16:06:19.942Z,1.73
2018-03-30T16:08:47.468Z,0.90
2018-03-30T16:11:34.480Z,1.13
2018-03-30T16:14:00.853Z,1.43
2018-03-30T16:16:27.211Z,0.97
2018-03-30T16:18:55.039Z,1.27
2018-03-30T16:21:21.170Z,1.93
2018-03-30T16:23:47.380Z,1.67
2018-03-30T16:26:13.527Z,1.37
2018-03-30T16:28:39.654Z,1.67
2018-03-30T16:31:05.793Z,1.10
2018-03-30T16:33:31.937Z,1.50
2018-03-30T16:35:58.813Z,1.50
2018-03-30T16:38:25.102Z,1.00
2018-03-30T16:40:51.268Z,1.17
2018-03-30T16:43:17.400Z,1.40
2018-03-30T16:45:43.665Z,1.30
2018-03-30T16:48:09.799Z,1.00
2018-03-30T16:50:36.011Z,1.93
2018-03-30T16:53:02.149Z,1.40
2018-03-30T16:55:28.804Z,1.43
2018-03-30T16:57:55.036Z,1.73
2018-03-30T17:00:21.169Z,1.20
2018-03-30T17:02:47.292Z,1.40
2018-03-30T17:05:13.534Z,2.13
2018-03-30T17:07:40.390Z,2.70
2018-03-30T17:10:07.316Z,4.13
2018-03-30T17:12:34.301Z,2.33
2018-03-30T17:15:00.461Z,1.77
2018-03-30T17:17:26.581Z,1.70
2018-03-30T17:19:52.732Z,1.67
2018-03-30T17:22:18.903Z,1.37
2018-03-30T17:24:45.056Z,1.43
2018-03-30T17:27:11.199Z,1.30
2018-03-30T17:29:37.378Z,1.43
2018-03-30T17:32:03.542Z,1.40
2018-03-30T17:34:29.744Z,1.60
2018-03-30T17:36:56.737Z,1.73
2018-03-30T17:39:22.863Z,1.90
2018-03-30T17:41:49.003Z,1.87
2018-03-30T17:44:15.966Z,2.53
2018-03-30T17:46:42.851Z,4.10
2018-03-30T17:49:08.998Z,2.83
2018-03-30T17:51:35.146Z,3.63
2018-03-30T17:54:02.089Z,4.30
2018-03-30T17:56:28.318Z,3.40
2018-03-30T17:58:54.477Z,3.90
2018-03-30T18:01:20.699Z,2.33
2018-03-30T18:03:46.840Z,2.40
2018-03-30T18:06:13.022Z,3.07
2018-03-30T18:08:39.960Z,1.83
2018-03-30T18:11:06.104Z,1.83
2018-03-30T18:13:32.996Z,2.80
2018-03-30T18:15:59.156Z,2.03
2018-03-30T18:18:25.288Z,1.70
2018-03-30T18:20:51.499Z,2.37
2018-03-30T18:23:17.866Z,2.03
2018-03-30T18:25:44.832Z,2.60
2018-03-30T18:28:10.992Z,1.73
2018-03-30T18:30:37.189Z,2.57
2018-03-30T18:33:03.315Z,2.40
2018-03-30T18:35:29.462Z,1.93
2018-03-30T18:37:55.607Z,4.62
2018-03-30T18:40:21.720Z,4.40
2018-03-30T18:42:47.891Z,2.57
2018-03-30T18:45:14.800Z,3.73
2018-03-30T18:47:41.053Z,2.90
2018-03-30T18:50:07.186Z,4.07
2018-03-30T18:52:33.341Z,4.10
2018-03-30T18:55:00.245Z,3.33
2018-03-30T18:57:26.421Z,2.47
2018-03-30T18:59:53.300Z,2.70
2018-03-30T19:02:19.430Z,3.10
2018-03-30T19:04:45.688Z,2.20
2018-03-30T19:07:11.803Z,2.07
2018-03-30T19:09:37.952Z,2.20
2018-03-30T19:12:04.820Z,2.03
2018-03-30T19:14:30.935Z,2.50
2018-03-30T19:16:57.832Z,1.80
2018-03-30T19:19:24.018Z,2.27
2018-03-30T19:21:50.134Z,2.63
2018-03-30T19:30:15.044Z,2.90
2018-03-30T19:32:41.197Z,1.97
2018-03-30T19:35:07.486Z,3.20
2018-03-30T19:37:33.682Z,3.10
2018-03-30T19:39:59.823Z,3.20
2018-03-30T19:42:26.071Z,4.00
2018-03-30T19:44:52.959Z,2.57
2018-03-30T19:47:19.139Z,2.80
2018-03-30T19:49:46.031Z,2.67
2018-03-30T19:52:12.519Z,3.10
2018-03-30T19:54:39.596Z,3.07
2018-03-30T19:57:05.799Z,2.63
2018-03-30T19:59:32.364Z,4.23
2018-03-30T20:01:58.595Z,4.03
2018-03-30T20:04:24.739Z,2.87
2018-03-30T20:06:50.889Z,2.63
2018-03-30T20:09:17.108Z,3.63
2018-03-30T20:11:43.270Z,2.60
2018-03-30T20:14:10.848Z,2.90
2018-03-30T20:16:38.756Z,2.97
2018-03-30T20:19:05.264Z,4.30
2018-03-30T20:21:31.838Z,4.53
2018-03-30T20:23:58.013Z,4.83
2018-03-30T20:28:57.005Z,3.53
2018-03-30T20:31:23.167Z,3.37
2018-03-30T20:33:49.517Z,3.97
2018-03-30T20:36:15.808Z,3.73
2018-03-30T20:38:42.304Z,3.30
2018-03-30T20:41:10.580Z,2.97
2018-03-30T20:43:37.002Z,3.63
2018-03-30T20:46:03.243Z,2.50
2018-03-30T20:48:29.471Z,2.80
2018-03-30T20:50:55.730Z,3.80
2018-03-30T20:53:24.268Z,2.90
2018-03-30T20:55:50.584Z,2.70
2018-03-30T20:58:17.175Z,2.33
2018-03-30T21:00:44.081Z,2.70
2018-03-30T21:03:10.367Z,2.27
2018-03-30T21:05:37.240Z,2.60
2018-03-30T21:08:03.387Z,2.13
2018-03-30T21:10:29.833Z,2.40
2018-03-30T21:12:56.292Z,2.10
2018-03-30T21:15:22.497Z,2.13
2018-03-30T21:17:48.709Z,2.30
2018-03-30T21:20:14.975Z,2.90
2018-03-30T21:22:41.154Z,1.73
2018-03-30T21:25:07.406Z,1.93
2018-03-30T21:27:33.632Z,2.27
2018-03-30T21:29:59.908Z,1.67
2018-03-30T21:32:26.061Z,1.97
2018-03-30T21:34:53.353Z,1.70
2018-03-30T21:37:20.309Z,1.90
2018-03-30T21:39:46.890Z,2.00
2018-03-30T21:42:13.413Z,2.00
2018-03-30T21:44:40.190Z,1.70
2018-03-30T21:47:07.025Z,1.97
2018-03-30T21:49:35.509Z,2.30
2018-03-30T21:52:01.768Z,1.97
2018-03-30T21:54:28.308Z,2.07
2018-03-30T21:56:54.505Z,3.07
2018-03-30T21:59:21.770Z,2.00
2018-03-30T22:01:48.111Z,2.60
2018-03-30T22:04:14.670Z,1.67
2018-03-30T22:06:41.963Z,2.60
2018-03-30T22:09:08.214Z,3.20
2018-03-30T22:11:34.471Z,2.67
2018-03-30T22:14:00.593Z,2.20
2018-03-30T22:16:27.377Z,2.10
2018-03-30T22:18:53.526Z,2.80
2018-03-30T22:21:19.676Z,3.13
2018-03-30T22:23:45.855Z,2.43
2018-03-30T22:26:11.985Z,2.10
2018-03-30T22:28:38.112Z,2.40
2018-03-30T22:31:05.105Z,3.97
2018-03-30T22:33:31.244Z,2.70
2018-03-30T22:35:57.892Z,2.20
2018-03-30T22:38:24.796Z,1.87
2018-03-30T22:43:24.519Z,1.83
2018-03-30T22:45:50.728Z,2.60
2018-03-30T22:48:16.871Z,2.20
2018-03-30T22:50:43.016Z,2.07
2018-03-30T22:53:09.140Z,2.47
2018-03-30T22:55:35.256Z,1.90
2018-03-30T22:58:01.396Z,1.87
2018-03-30T23:00:27.533Z,2.00
2018-03-30T23:02:53.677Z,1.70
2018-03-30T23:05:19.803Z,2.90
2018-03-30T23:07:45.925Z,1.50
2018-03-30T23:10:12.039Z,1.60
2018-03-30T23:12:38.173Z,1.20
2018-03-30T23:15:04.306Z,1.30
2018-03-30T23:17:31.181Z,1.47
2018-03-30T23:19:57.410Z,1.23
2018-03-30T23:22:23.575Z,1.03
2018-03-30T23:24:50.281Z,1.20
2018-03-30T23:27:16.441Z,1.53
2018-03-30T23:29:42.556Z,1.10
2018-03-30T23:32:08.712Z,1.60
2018-03-30T23:34:34.945Z,0.63
2018-03-30T23:37:01.180Z,1.20
2018-03-30T23:39:27.408Z,0.93
2018-03-30T23:41:53.522Z,0.80
2018-03-30T23:44:19.754Z,0.93
2018-03-30T23:46:45.892Z,1.20
2018-03-30T23:49:12.040Z,0.47
2018-03-30T23:51:38.968Z,0.57
2018-03-30T23:54:05.113Z,1.00
2018-03-30T23:56:32.000Z,0.60
2018-03-30T23:58:58.116Z,0.90
